Time;durP1;ratioP1;P1;durP2;ratioP2;P2;SDS_P1;SDS_P2;PMS_P1;PMS_P2;Temp;Humidity;BMP_temperature;BMP_pressure;BME280_temperature;BME280_humidity;BME280_pressure;Samples;Min_cycle;Max_cycle;Signal;HPM_P1;HPM_P2
2022/08/25 00:01:13;;;;;;;11.88;4.07;;;28.60;60.00;;;;;;5073679;28;20495;-74
2022/08/25 00:03:40;;;;;;;10.05;3.42;;;28.60;59.90;;;;;;5073932;28;20063;-74
2022/08/25 00:06:07;;;;;;;15.27;3.45;;;28.50;59.90;;;;;;5073858;28;20033;-74
2022/08/25 00:08:36;;;;;;;25.33;4.53;;;28.50;59.90;;;;;;5021779;28;20063;-74
2022/08/25 00:11:04;;;;;;;17.50;4.43;;;28.50;59.90;;;;;;5072308;28;20032;-74
2022/08/25 00:13:31;;;;;;;15.48;4.55;;;28.50;59.90;;;;;;5073550;28;20044;-74
2022/08/25 00:15:57;;;;;;;15.75;3.85;;;28.40;60.00;;;;;;5073428;28;20043;-74
2022/08/25 00:18:23;;;;;;;9.60;3.78;;;28.50;60.00;;;;;;5073711;28;20024;-74
2022/08/25 00:20:50;;;;;;;17.05;3.90;;;28.40;60.00;;;;;;5073435;28;20059;-73
2022/08/25 00:23:17;;;;;;;18.08;2.97;;;28.30;60.00;;;;;;5073515;28;20078;-74
2022/08/25 00:25:44;;;;;;;18.10;4.07;;;28.40;60.00;;;;;;5073460;28;20032;-73
2022/08/25 00:28:10;;;;;;;18.38;4.18;;;28.30;59.90;;;;;;5073274;28;20036;-74
2022/08/25 00:30:37;;;;;;;20.55;4.57;;;28.30;60.00;;;;;;5073432;28;20056;-73
2022/08/25 00:33:03;;;;;;;16.92;4.03;;;28.30;60.00;;;;;;5073238;28;20060;-74
2022/08/25 00:35:29;;;;;;;10.40;3.55;;;28.30;60.10;;;;;;5073297;28;20029;-73
2022/08/25 00:37:55;;;;;;;8.27;3.70;;;28.20;60.20;;;;;;5073235;28;20431;-74
2022/08/25 00:40:24;;;;;;;17.55;3.60;;;28.30;60.20;;;;;;5072935;28;20388;-74
2022/08/25 00:42:50;;;;;;;15.68;4.50;;;28.20;60.30;;;;;;5037442;28;20400;-73
2022/08/25 00:45:17;;;;;;;15.77;4.45;;;28.30;60.20;;;;;;5073277;28;20043;-73
2022/08/25 00:47:43;;;;;;;17.00;4.72;;;28.20;60.20;;;;;;5073124;28;20028;-74
2022/08/25 00:50:10;;;;;;;16.65;4.53;;;28.20;60.20;;;;;;5054878;28;20079;-73
2022/08/25 00:52:59;;;;;;;25.02;4.85;;;28.30;60.30;;;;;;5072732;28;20449;-74
2022/08/25 00:55:34;;;;;;;14.73;4.30;;;28.20;60.30;;;;;;5054918;28;20040;-73
2022/08/25 00:58:19;;;;;;;22.15;4.55;;;28.20;60.30;;;;;;5054852;28;20037;-73
2022/08/25 01:00:49;;;;;;;17.35;4.97;;;28.20;60.30;;;;;;5072751;28;20082;-74
2022/08/25 01:03:17;;;;;;;12.50;3.95;;;28.20;60.20;;;;;;5072525;28;20032;-74
2022/08/25 01:05:45;;;;;;;20.35;4.15;;;28.30;60.20;;;;;;5054702;28;20062;-73
2022/08/25 01:08:12;;;;;;;22.25;4.47;;;28.40;60.20;;;;;;5072565;28;20020;-73
2022/08/25 01:10:41;;;;;;;16.77;4.78;;;28.40;60.20;;;;;;5072457;28;20043;-73
2022/08/25 01:13:13;;;;;;;14.45;5.43;;;28.30;60.10;;;;;;5072471;28;20428;-73
2022/08/25 01:15:40;;;;;;;26.48;5.07;;;28.40;60.10;;;;;;5072574;28;20028;-74
2022/08/25 01:18:07;;;;;;;17.35;4.00;;;28.20;60.10;;;;;;5072227;28;20107;-74
2022/08/25 01:20:34;;;;;;;16.10;4.30;;;28.40;60.10;;;;;;5072283;28;20029;-73
2022/08/25 01:23:00;;;;;;;18.90;3.88;;;28.20;60.10;;;;;;5071948;28;20386;-74
2022/08/25 01:25:38;;;;;;;17.08;4.38;;;28.20;60.10;;;;;;5072210;28;20028;-73
2022/08/25 01:28:04;;;;;;;15.45;4.18;;;28.30;60.10;;;;;;5072332;28;20043;-74
2022/08/25 01:30:31;;;;;;;20.85;4.35;;;28.20;60.20;;;;;;5072061;28;20041;-73
2022/08/25 01:32:57;;;;;;;19.25;4.05;;;28.30;60.20;;;;;;5071895;28;20128;-73
2022/08/25 01:35:23;;;;;;;15.57;3.97;;;28.20;60.20;;;;;;5036463;28;20055;-74
2022/08/25 01:37:49;;;;;;;16.70;3.80;;;28.20;60.20;;;;;;5072094;28;20350;-73
2022/08/25 01:40:16;;;;;;;15.60;4.35;;;28.10;60.20;;;;;;5071825;28;20401;-74
2022/08/25 01:42:57;;;;;;;11.40;3.63;;;28.20;60.30;;;;;;5071923;28;20427;-74
2022/08/25 01:45:23;;;;;;;21.25;4.55;;;28.20;60.50;;;;;;5071908;28;20043;-73
2022/08/25 01:47:49;;;;;;;12.65;3.83;;;28.10;60.50;;;;;;5072075;28;20037;-73
2022/08/25 01:50:16;;;;;;;16.88;4.43;;;28.10;60.50;;;;;;5071608;28;20036;-73
2022/08/25 01:53:00;;;;;;;18.17;4.32;;;28.10;60.50;;;;;;5071883;28;20047;-74
2022/08/25 01:55:26;;;;;;;21.50;4.32;;;28.20;60.50;;;;;;5071702;28;20530;-74
2022/08/25 01:57:53;;;;;;;15.85;4.47;;;28.10;60.50;;;;;;5071897;28;20040;-73
2022/08/25 02:00:21;;;;;;;13.55;3.72;;;28.20;60.50;;;;;;5071887;28;20066;-74
2022/08/25 02:02:47;;;;;;;15.98;4.10;;;28.10;60.50;;;;;;5036248;28;20048;-73
2022/08/25 02:05:15;;;;;;;15.57;4.47;;;28.10;60.50;;;;;;5071714;28;20048;-74
2022/08/25 02:07:42;;;;;;;18.13;4.95;;;28.20;60.50;;;;;;5071639;28;20037;-74
2022/08/25 02:10:11;;;;;;;15.35;4.85;;;28.10;60.50;;;;;;5071826;28;20116;-73
2022/08/25 02:12:38;;;;;;;22.92;4.10;;;28.10;60.50;;;;;;5071651;28;20043;-73
2022/08/25 02:15:06;;;;;;;16.58;4.03;;;28.20;60.50;;;;;;5071929;28;20436;-73
2022/08/25 02:17:35;;;;;;;19.75;4.78;;;28.20;60.50;;;;;;5071599;28;20602;-74
2022/08/25 02:20:07;;;;;;;22.15;4.85;;;28.20;60.40;;;;;;5071561;28;20097;-74
2022/08/25 02:22:33;;;;;;;19.60;4.47;;;28.20;60.50;;;;;;5071470;28;20045;-72
2022/08/25 02:24:59;;;;;;;18.90;3.78;;;28.00;60.40;;;;;;5071881;28;20450;-73
2022/08/25 02:27:25;;;;;;;26.75;4.72;;;28.20;60.40;;;;;;5071553;28;20043;-73
2022/08/25 02:29:51;;;;;;;14.32;4.68;;;28.10;60.40;;;;;;5071410;28;20420;-74
2022/08/25 02:32:18;;;;;;;14.15;3.60;;;28.10;60.40;;;;;;5053421;28;20024;-73
2022/08/25 02:34:44;;;;;;;12.85;4.72;;;28.10;60.40;;;;;;5073259;28;20024;-74
2022/08/25 02:37:11;;;;;;;20.70;4.72;;;28.10;60.40;;;;;;5075662;28;20036;-73
2022/08/25 02:39:37;;;;;;;18.92;4.60;;;27.90;59.90;;;;;;5075393;28;20067;-74
2022/08/25 02:42:05;;;;;;;21.83;4.32;;;28.10;60.50;;;;;;5075255;28;20151;-74
2022/08/25 02:44:31;;;;;;;20.77;4.35;;;28.10;60.50;;;;;;5075415;28;20039;-73
2022/08/25 02:46:57;;;;;;;22.55;5.05;;;28.00;60.50;;;;;;5075347;28;20036;-73
2022/08/25 02:49:23;;;;;;;12.60;4.28;;;28.00;60.60;;;;;;5074845;28;20033;-74
2022/08/25 02:51:50;;;;;;;18.65;4.65;;;28.00;60.70;;;;;;5075081;28;20040;-74
2022/08/25 02:54:16;;;;;;;15.93;4.40;;;28.00;60.70;;;;;;5074897;28;20037;-74
2022/08/25 02:56:42;;;;;;;24.13;5.07;;;27.90;60.20;;;;;;5074848;28;20025;-74
2022/08/25 02:59:08;;;;;;;16.00;4.28;;;27.90;60.20;;;;;;5074832;28;20040;-73
2022/08/25 03:01:34;;;;;;;10.18;4.60;;;28.00;60.70;;;;;;5074760;28;20036;-73
2022/08/25 03:04:00;;;;;;;12.35;4.55;;;27.90;60.10;;;;;;5074837;28;20075;-74
2022/08/25 03:06:27;;;;;;;17.75;4.35;;;28.00;60.70;;;;;;5074761;28;20127;-74
2022/08/25 03:08:53;;;;;;;16.63;4.03;;;28.10;60.80;;;;;;5074782;28;20104;-73
2022/08/25 03:11:20;;;;;;;30.75;4.00;;;28.10;60.70;;;;;;5074518;28;20469;-73
2022/08/25 03:13:49;;;;;;;21.73;4.45;;;28.00;60.70;;;;;;5074669;28;20124;-73
2022/08/25 03:16:16;;;;;;;21.52;4.22;;;27.90;60.10;;;;;;5074694;28;20039;-74
2022/08/25 03:18:42;;;;;;;13.48;4.25;;;28.00;60.70;;;;;;5074700;28;20041;-74
2022/08/25 03:21:10;;;;;;;15.15;4.53;;;27.90;60.10;;;;;;5074344;28;20468;-74
2022/08/25 03:23:36;;;;;;;12.48;4.40;;;28.00;60.60;;;;;;5074737;28;20043;-73
2022/08/25 03:28:48;;;;;;;14.32;4.03;;;28.00;60.60;;;;;;5074316;28;20044;-74
2022/08/25 03:31:14;;;;;;;17.58;3.45;;;28.10;60.50;;;;;;5074269;28;20049;-73
2022/08/25 03:33:40;;;;;;;14.27;3.70;;;28.10;60.50;;;;;;5056156;28;20035;-74
2022/08/25 03:36:07;;;;;;;19.27;4.38;;;28.00;60.50;;;;;;5038873;28;20055;-74
2022/08/25 03:38:37;;;;;;;8.43;4.00;;;27.90;60.00;;;;;;5074123;28;20032;-73
2022/08/25 03:41:15;;;;;;;18.92;5.00;;;28.00;60.50;;;;;;5074269;28;20116;-74
2022/08/25 03:43:42;;;;;;;18.23;3.92;;;28.00;60.50;;;;;;5074190;28;20028;-74
2022/08/25 03:46:08;;;;;;;20.58;5.05;;;28.00;60.50;;;;;;5073863;28;20044;-74
2022/08/25 03:48:34;;;;;;;18.73;4.10;;;27.90;60.00;;;;;;5074300;28;20033;-74
2022/08/25 03:51:00;;;;;;;16.20;4.45;;;27.90;60.00;;;;;;5074330;28;20043;-73
2022/08/25 03:53:26;;;;;;;12.82;3.83;;;27.90;60.00;;;;;;5038365;28;20049;-73
2022/08/25 03:55:52;;;;;;;14.13;3.63;;;27.90;60.00;;;;;;5074121;28;20440;-73
2022/08/25 03:58:18;;;;;;;20.08;5.38;;;27.90;60.20;;;;;;5073864;28;20036;-73
2022/08/25 04:00:44;;;;;;;10.90;4.25;;;27.90;60.20;;;;;;5073951;28;20052;-74
2022/08/25 04:03:10;;;;;;;14.60;4.20;;;27.90;60.30;;;;;;5073942;28;20032;-74
2022/08/25 04:05:37;;;;;;;16.02;3.95;;;27.90;60.10;;;;;;5073802;28;20112;-73
2022/08/25 04:08:03;;;;;;;17.88;3.95;;;28.00;60.40;;;;;;5073905;28;20477;-73
2022/08/25 04:10:30;;;;;;;11.70;4.07;;;28.20;60.20;;;;;;5073670;28;20032;-74
2022/08/25 04:12:57;;;;;;;17.45;4.30;;;28.10;60.10;;;;;;5073491;28;20028;-74
2022/08/25 04:15:24;;;;;;;22.80;4.28;;;28.10;60.00;;;;;;5073556;28;20537;-74
2022/08/25 04:17:50;;;;;;;10.93;4.10;;;28.20;59.80;;;;;;5073757;28;20036;-73
2022/08/25 04:20:16;;;;;;;15.38;3.83;;;28.30;59.80;;;;;;5073723;28;20037;-73
2022/08/25 04:22:42;;;;;;;11.07;4.90;;;28.20;59.90;;;;;;5073592;28;20128;-73
2022/08/25 04:25:08;;;;;;;9.43;3.60;;;28.20;59.90;;;;;;5073334;28;20044;-73
2022/08/25 04:27:36;;;;;;;10.35;3.33;;;28.10;60.00;;;;;;5055330;28;20473;-73
2022/08/25 04:30:03;;;;;;;9.90;4.18;;;28.10;60.00;;;;;;5073409;28;20049;-74
2022/08/25 04:32:31;;;;;;;15.85;5.78;;;28.20;60.00;;;;;;5073251;28;20079;-74
2022/08/25 04:34:57;;;;;;;16.25;4.68;;;28.20;59.90;;;;;;5073202;28;20039;-74
2022/08/25 04:37:23;;;;;;;16.05;4.40;;;28.10;59.90;;;;;;5073185;28;20032;-73
2022/08/25 04:39:49;;;;;;;10.98;4.25;;;28.10;59.80;;;;;;5071844;28;20481;-73
2022/08/25 04:42:15;;;;;;;14.00;4.63;;;28.10;59.80;;;;;;5072914;28;20067;-73
2022/08/25 04:44:41;;;;;;;11.68;5.10;;;28.10;59.80;;;;;;5073074;28;20040;-73
2022/08/25 04:47:08;;;;;;;16.30;4.03;;;28.10;59.90;;;;;;5072767;28;20107;-74
2022/08/25 04:49:35;;;;;;;18.30;4.05;;;28.00;59.80;;;;;;5072993;28;20029;-74
2022/08/25 04:52:02;;;;;;;10.90;3.50;;;28.10;59.80;;;;;;5073252;28;20090;-73
2022/08/25 04:54:28;;;;;;;12.15;4.30;;;28.10;59.90;;;;;;5072894;28;20389;-73
2022/08/25 04:56:54;;;;;;;16.25;4.63;;;28.00;59.80;;;;;;5072384;28;20039;-73
2022/08/25 04:59:20;;;;;;;12.82;4.22;;;28.00;59.90;;;;;;5072847;28;20123;-73
2022/08/25 05:01:47;;;;;;;18.83;3.83;;;28.20;59.90;;;;;;5072784;28;20107;-73
2022/08/25 05:04:14;;;;;;;13.43;4.63;;;28.00;60.00;;;;;;5072664;28;20527;-74
2022/08/25 05:06:42;;;;;;;11.05;4.10;;;28.00;60.00;;;;;;5072948;28;20032;-73
2022/08/25 05:09:08;;;;;;;16.60;4.47;;;28.00;59.90;;;;;;5072529;28;20028;-73
2022/08/25 05:11:35;;;;;;;23.65;5.25;;;28.10;59.90;;;;;;5072512;28;20493;-73
2022/08/25 05:14:02;;;;;;;14.00;4.43;;;28.10;59.80;;;;;;5072383;28;20531;-73
2022/08/25 05:16:29;;;;;;;11.70;4.50;;;28.20;59.70;;;;;;5054677;28;20036;-73
2022/08/25 05:18:56;;;;;;;11.40;4.68;;;28.20;59.60;;;;;;5072425;28;20382;-73
2022/08/25 05:21:25;;;;;;;17.95;4.68;;;28.10;59.60;;;;;;5072388;28;20040;-73
2022/08/25 05:23:56;;;;;;;8.73;3.65;;;28.20;59.50;;;;;;5072318;28;20108;-74
2022/08/25 05:26:24;;;;;;;12.38;4.60;;;28.30;59.50;;;;;;5054362;28;20024;-74
2022/08/25 05:28:53;;;;;;;8.82;3.88;;;28.40;59.40;;;;;;5072052;28;20056;-73
2022/08/25 05:31:21;;;;;;;9.45;4.15;;;28.40;59.30;;;;;;5072238;28;20041;-74
2022/08/25 05:33:47;;;;;;;13.73;4.75;;;28.30;59.30;;;;;;5054074;28;20064;-73
2022/08/25 05:36:15;;;;;;;9.88;4.10;;;28.30;59.30;;;;;;5019743;28;20052;-73
2022/08/25 05:38:42;;;;;;;12.38;4.55;;;28.30;59.20;;;;;;5072053;28;20032;-74
2022/08/25 05:41:12;;;;;;;12.30;3.88;;;28.30;59.10;;;;;;5071893;28;20044;-73
2022/08/25 05:43:39;;;;;;;13.32;3.90;;;28.40;59.10;;;;;;5071714;28;20039;-73
2022/08/25 05:46:07;;;;;;;17.25;4.75;;;28.30;59.10;;;;;;5071980;28;20606;-73
2022/08/25 05:48:33;;;;;;;11.70;4.60;;;28.30;59.00;;;;;;5071846;28;20178;-73
2022/08/25 05:51:01;;;;;;;13.23;4.28;;;28.50;59.00;;;;;;5052920;28;20662;-74
2022/08/25 05:53:29;;;;;;;10.85;4.10;;;28.40;59.00;;;;;;5053774;28;20036;-73
2022/08/25 05:55:57;;;;;;;13.13;4.25;;;28.20;59.00;;;;;;5071924;28;20461;-73
2022/08/25 05:58:24;;;;;;;9.68;4.15;;;28.20;58.90;;;;;;5071929;28;20477;-73
2022/08/25 06:00:50;;;;;;;11.85;3.85;;;28.40;58.90;;;;;;5071837;28;20032;-74
2022/08/25 06:03:17;;;;;;;9.18;4.57;;;28.30;58.90;;;;;;5053638;28;20035;-74
2022/08/25 06:05:43;;;;;;;9.23;3.55;;;28.30;59.00;;;;;;5071766;28;20031;-73
2022/08/25 06:08:10;;;;;;;11.23;3.13;;;28.30;59.10;;;;;;5019619;28;20064;-73
2022/08/25 06:10:36;;;;;;;9.70;3.08;;;28.30;59.00;;;;;;5071976;28;20029;-74
2022/08/25 06:13:03;;;;;;;6.47;2.88;;;28.40;58.90;;;;;;5071566;28;20060;-73
2022/08/25 06:15:29;;;;;;;11.48;2.63;;;28.40;58.80;;;;;;5071741;28;20365;-74
2022/08/25 06:17:57;;;;;;;4.78;3.00;;;28.50;58.70;;;;;;5071853;28;20449;-73
2022/08/25 06:20:26;;;;;;;6.80;2.80;;;28.50;58.70;;;;;;5071683;28;20392;-73
2022/08/25 06:22:53;;;;;;;6.40;2.97;;;28.50;58.70;;;;;;5071203;28;20040;-74
2022/08/25 06:25:21;;;;;;;6.00;3.03;;;28.60;58.70;;;;;;5071065;28;20024;-73
2022/08/25 06:27:47;;;;;;;7.15;3.72;;;28.60;58.70;;;;;;5071511;28;20093;-73
2022/08/25 06:30:17;;;;;;;10.85;4.28;;;28.60;58.60;;;;;;5071491;28;20078;-74
2022/08/25 06:32:44;;;;;;;12.43;3.47;;;28.60;58.60;;;;;;5071496;28;20082;-73
2022/08/25 06:35:13;;;;;;;7.95;3.05;;;28.60;58.60;;;;;;5071770;28;20044;-73
2022/08/25 06:37:41;;;;;;;4.18;2.33;;;28.60;58.60;;;;;;5071543;28;20033;-73
2022/08/25 06:40:09;;;;;;;5.22;2.10;;;28.80;58.60;;;;;;5071371;28;20037;-73
2022/08/25 06:42:35;;;;;;;4.18;2.70;;;28.70;58.60;;;;;;5071205;28;20037;-73
2022/08/25 06:45:01;;;;;;;6.93;2.30;;;28.80;58.50;;;;;;5071197;28;20039;-74
2022/08/25 06:47:28;;;;;;;4.75;2.22;;;28.70;58.50;;;;;;5071361;28;20036;-73
2022/08/25 06:49:54;;;;;;;8.00;2.80;;;28.70;58.50;;;;;;5071543;28;20146;-73
2022/08/25 06:52:20;;;;;;;9.38;2.70;;;28.60;58.50;;;;;;5071376;28;20206;-74
2022/08/25 06:54:46;;;;;;;4.85;2.45;;;28.60;58.50;;;;;;5071237;28;20420;-73
2022/08/25 06:57:12;;;;;;;5.85;3.03;;;28.60;58.10;;;;;;5071355;28;20033;-73
2022/08/25 06:59:38;;;;;;;5.68;2.65;;;28.60;58.50;;;;;;5071368;28;20040;-74
2022/08/25 07:02:05;;;;;;;5.32;3.25;;;28.60;58.50;;;;;;5071041;28;20041;-74
2022/08/25 07:04:35;;;;;;;7.45;2.70;;;28.50;58.50;;;;;;5035659;28;20078;-73
2022/08/25 07:07:01;;;;;;;4.53;2.53;;;28.50;58.40;;;;;;5071284;28;20059;-73
2022/08/25 07:09:27;;;;;;;10.25;3.00;;;28.60;58.50;;;;;;5071152;28;20067;-74
2022/08/25 07:11:54;;;;;;;6.80;2.85;;;28.50;58.60;;;;;;5071020;28;20060;-73
2022/08/25 07:14:21;;;;;;;9.75;2.97;;;28.60;58.60;;;;;;5071179;28;20465;-74
2022/08/25 07:16:47;;;;;;;7.88;2.78;;;28.70;58.60;;;;;;5071166;28;20400;-74
2022/08/25 07:19:13;;;;;;;8.45;2.95;;;28.60;58.60;;;;;;5071083;28;20079;-74
2022/08/25 07:21:41;;;;;;;11.73;2.90;;;28.60;58.60;;;;;;5073996;28;20029;-73
2022/08/25 07:24:10;;;;;;;10.70;3.03;;;28.70;58.60;;;;;;5074384;28;20099;-74
2022/08/25 07:26:38;;;;;;;9.27;2.67;;;28.70;58.60;;;;;;5074777;28;20033;-74
2022/08/25 07:29:11;;;;;;;17.50;3.20;;;28.70;58.60;;;;;;5074136;28;20067;-73
2022/08/25 07:31:37;;;;;;;14.57;3.45;;;28.70;58.60;;;;;;5074489;28;20443;-74
2022/08/25 07:36:49;;;;;;;9.65;2.30;;;28.70;58.60;;;;;;5074420;28;20124;-73
2022/08/25 07:39:16;;;;;;;5.75;2.30;;;28.70;58.50;;;;;;5074231;28;20078;-74
2022/08/25 07:41:42;;;;;;;8.13;3.00;;;28.70;58.50;;;;;;5074292;28;20481;-74
2022/08/25 07:44:10;;;;;;;4.97;2.40;;;28.80;58.50;;;;;;5056341;28;20424;-73
2022/08/25 07:46:37;;;;;;;5.50;2.67;;;28.70;58.50;;;;;;5056523;28;20123;-74
2022/08/25 07:49:04;;;;;;;3.95;2.22;;;28.80;58.40;;;;;;5074249;28;20087;-74
2022/08/25 07:51:30;;;;;;;4.95;2.90;;;28.80;58.00;;;;;;5074145;28;20056;-74
2022/08/25 07:53:56;;;;;;;6.60;2.45;;;28.70;58.40;;;;;;5073853;28;20067;-73
2022/08/25 07:56:22;;;;;;;4.93;2.28;;;28.70;58.40;;;;;;5038907;28;20052;-73
2022/08/25 07:58:48;;;;;;;4.43;2.95;;;28.70;58.40;;;;;;5072718;28;20037;-74
2022/08/25 08:01:15;;;;;;;5.68;2.42;;;28.70;58.40;;;;;;5074038;28;20044;-73
2022/08/25 08:03:42;;;;;;;5.78;2.28;;;28.70;58.40;;;;;;5073801;28;20427;-74
2022/08/25 08:06:11;;;;;;;6.63;2.10;;;28.70;58.50;;;;;;5073635;28;20457;-73
2022/08/25 08:08:44;;;;;;;5.07;2.35;;;28.70;58.30;;;;;;5073654;28;20021;-74
2022/08/25 08:11:18;;;;;;;4.28;2.85;;;28.60;58.40;;;;;;5073774;28;20054;-73
2022/08/25 08:13:46;;;;;;;7.10;2.92;;;28.70;58.50;;;;;;5055429;28;20055;-73
2022/08/25 08:16:15;;;;;;;4.60;2.63;;;28.60;58.50;;;;;;5073688;28;20038;-73
2022/08/25 08:18:45;;;;;;;7.55;2.70;;;28.70;58.60;;;;;;5073629;28;20033;-74
2022/08/25 08:21:21;;;;;;;4.78;2.58;;;28.60;58.50;;;;;;5073522;28;20032;-73
2022/08/25 08:23:49;;;;;;;10.32;2.78;;;28.60;58.60;;;;;;5073249;28;20473;-74
2022/08/25 08:26:16;;;;;;;5.35;2.38;;;28.60;58.50;;;;;;5073464;28;20037;-73
2022/08/25 08:28:42;;;;;;;2.97;2.00;;;28.60;58.60;;;;;;5073219;28;20037;-73
2022/08/25 08:31:09;;;;;;;5.57;2.38;;;28.70;58.60;;;;;;5072808;28;20417;-74
2022/08/25 08:33:35;;;;;;;4.38;2.80;;;28.70;58.60;;;;;;5072535;28;20040;-73
2022/08/25 08:36:05;;;;;;;8.40;1.95;;;28.70;58.60;;;;;;5073418;28;20478;-74
2022/08/25 08:38:33;;;;;;;4.57;2.08;;;28.70;58.60;;;;;;5073286;28;20034;-73
2022/08/25 08:44:46;;;;;;;6.03;2.60;;;28.70;58.60;;;;;;4991354;28;20150;-73
2022/08/25 08:47:18;;;;;;;5.47;2.50;;;28.80;58.60;;;;;;4991371;28;20038;-73
2022/08/25 08:50:02;;;;;;;3.63;2.08;;;28.60;58.50;;;;;;4991551;28;20034;-74
2022/08/25 08:52:40;;;;;;;9.50;2.97;;;28.70;58.40;;;;;;4991286;28;20046;-73
2022/08/25 08:55:23;;;;;;;7.88;2.40;;;28.70;58.50;;;;;;4991030;28;20060;-74
2022/08/25 08:57:52;;;;;;;3.42;2.05;;;28.80;58.40;;;;;;4991413;28;20060;-74
2022/08/25 09:00:18;;;;;;;4.20;1.73;;;28.70;58.50;;;;;;4990851;28;20046;-74
2022/08/25 09:03:05;;;;;;;3.03;1.77;;;28.70;58.50;;;;;;4991294;28;20070;-73
2022/08/25 09:05:42;;;;;;;4.15;2.28;;;28.70;58.60;;;;;;4990891;28;20045;-74
2022/08/25 09:08:12;;;;;;;3.78;1.60;;;28.80;58.60;;;;;;4990758;28;20042;-74
2022/08/25 09:10:49;;;;;;;5.82;1.85;;;28.70;58.60;;;;;;4991079;28;20505;-74
2022/08/25 09:14:02;;;;;;;8.60;2.35;;;28.50;58.40;;;;;;4990807;28;20050;-74
2022/08/25 09:16:55;;;;;;;8.65;1.75;;;28.60;58.60;;;;;;4952006;29;20051;-73
2022/08/25 09:19:51;;;;;;;2.75;1.70;;;28.60;58.60;;;;;;4979311;28;20068;-73
2022/08/25 09:22:33;;;;;;;7.75;1.75;;;28.70;58.60;;;;;;5030059;28;20521;-73
2022/08/25 09:25:26;;;;;;;5.00;1.67;;;28.60;58.60;;;;;;5029871;28;20127;-73
2022/08/25 09:28:06;;;;;;;;;;;28.90;58.70;;;;;;4990873;28;20038;-73
2022/08/25 09:30:53;;;;;;;4.75;1.58;;;28.70;58.70;;;;;;5006457;28;20361;-73
2022/08/25 09:33:21;;;;;;;5.90;1.73;;;28.60;58.40;;;;;;5010026;28;20070;-73
2022/08/25 09:35:50;;;;;;;4.57;1.80;;;28.50;58.70;;;;;;5010249;28;20538;-73
2022/08/25 09:38:18;;;;;;;5.75;1.80;;;28.60;58.70;;;;;;5009852;28;20037;-73
2022/08/25 09:40:50;;;;;;;8.27;1.73;;;28.70;58.80;;;;;;5010119;28;20044;-73
2022/08/25 09:43:28;;;;;;;1.95;1.50;;;28.60;58.90;;;;;;5009900;28;20108;-73
2022/08/25 09:46:11;;;;;;;7.22;1.80;;;28.60;58.90;;;;;;5009919;28;20406;-73
2022/08/25 09:48:47;;;;;;;2.15;1.30;;;28.60;58.90;;;;;;5009871;28;20104;-73
2022/08/25 09:51:29;;;;;;;4.57;1.83;;;28.70;58.90;;;;;;5019954;28;20041;-74
2022/08/25 09:54:18;;;;;;;4.80;1.90;;;28.70;58.70;;;;;;5049558;28;20045;-73
2022/08/25 09:57:04;;;;;;;2.78;1.42;;;28.60;58.90;;;;;;5049517;28;20056;-74
2022/08/25 09:59:33;;;;;;;3.08;1.77;;;28.70;58.90;;;;;;5066558;28;20443;-73
2022/08/25 10:02:20;;;;;;;4.60;1.90;;;28.60;58.80;;;;;;5071857;28;20111;-73
2022/08/25 10:04:47;;;;;;;8.23;1.70;;;28.80;58.90;;;;;;5071688;28;20051;-73
2022/08/25 10:07:27;;;;;;;8.10;1.52;;;28.70;58.90;;;;;;5071751;28;20037;-74
2022/08/25 10:10:00;;;;;;;7.75;1.63;;;28.70;58.80;;;;;;5071786;28;20028;-74
2022/08/25 10:12:34;;;;;;;3.45;1.50;;;28.80;58.90;;;;;;5071715;28;20032;-73
2022/08/25 10:15:41;;;;;;;4.75;1.63;;;28.70;58.90;;;;;;5070573;28;20047;-74
2022/08/25 10:18:27;;;;;;;1.48;1.25;;;28.90;58.80;;;;;;5029243;28;20041;-74
2022/08/25 10:21:02;;;;;;;2.20;1.23;;;28.90;58.80;;;;;;5029349;28;20061;-74
2022/08/25 10:23:28;;;;;;;4.35;1.60;;;28.80;58.80;;;;;;5029170;28;20045;-74
2022/08/25 10:25:57;;;;;;;3.75;1.00;;;28.90;58.70;;;;;;4996123;28;20049;-74
2022/08/25 10:28:52;;;;;;;4.13;1.42;;;28.80;58.70;;;;;;5028895;28;20060;-73
2022/08/25 10:31:22;;;;;;;5.82;1.08;;;28.80;58.70;;;;;;4970383;28;20138;-73
2022/08/25 10:34:02;;;;;;;6.65;1.50;;;28.80;58.50;;;;;;4970437;28;20055;-74
2022/08/25 10:36:40;;;;;;;1.98;1.40;;;28.80;58.70;;;;;;4970231;28;20060;-73
2022/08/25 10:39:16;;;;;;;2.10;1.23;;;29.00;59.10;;;;;;4970372;28;20038;-73
2022/08/25 10:42:28;;;;;;;6.20;1.48;;;29.00;59.20;;;;;;4970420;28;20051;-73
2022/08/25 10:48:12;;;;;;;6.53;1.52;;;28.90;57.50;;;;;;4893716;29;20849;-74
2022/08/25 10:50:51;;;;;;;1.40;1.13;;;28.90;58.50;;;;;;4893991;29;20044;-74
2022/08/25 10:53:32;;;;;;;7.05;1.50;;;29.00;59.00;;;;;;4893900;29;20501;-74
2022/08/25 10:56:11;;;;;;;1.63;1.27;;;29.10;59.00;;;;;;4913061;29;20135;-74
2022/08/25 10:58:53;;;;;;;4.00;1.30;;;29.10;58.90;;;;;;4916583;29;20400;-74
2022/08/25 11:01:38;;;;;;;6.63;1.83;;;29.10;58.90;;;;;;4916167;29;20040;-74
2022/08/25 11:04:16;;;;;;;4.32;1.92;;;29.00;58.90;;;;;;4916463;29;20044;-74
2022/08/25 11:06:49;;;;;;;1.60;1.20;;;29.00;58.90;;;;;;4916212;29;20044;-74
2022/08/25 11:09:19;;;;;;;3.78;1.40;;;29.00;58.90;;;;;;4990216;28;20046;-74
2022/08/25 11:11:58;;;;;;;1.65;1.55;;;29.00;58.80;;;;;;4993199;28;20057;-74
2022/08/25 11:14:28;;;;;;;4.63;1.60;;;29.10;58.80;;;;;;4992877;28;20184;-73
2022/08/25 11:17:06;;;;;;;0.90;0.88;;;29.00;58.80;;;;;;4992971;28;20100;-74
2022/08/25 11:19:44;;;;;;;3.40;1.38;;;29.10;58.70;;;;;;4993002;28;20049;-74
2022/08/25 11:22:34;;;;;;;7.82;1.65;;;29.20;58.70;;;;;;5052354;28;20044;-74
2022/08/25 11:25:13;;;;;;;2.25;1.48;;;29.20;58.70;;;;;;5072290;28;20267;-74
2022/08/25 11:27:56;;;;;;;8.82;1.52;;;29.10;58.70;;;;;;5072145;28;20040;-74
2022/08/25 11:30:23;;;;;;;5.97;1.65;;;29.00;58.70;;;;;;5071780;28;20044;-71
2022/08/25 11:32:52;;;;;;;1.20;1.10;;;29.20;58.70;;;;;;5071622;28;20036;-73
2022/08/25 11:35:42;;;;;;;6.13;1.58;;;29.10;58.60;;;;;;5071190;28;20053;-74
2022/08/25 11:38:23;;;;;;;8.68;2.00;;;29.10;58.40;;;;;;5071409;28;20563;-74
2022/08/25 11:41:17;;;;;;;4.85;1.25;;;29.10;58.40;;;;;;5073041;28;20463;-74
2022/08/25 11:44:06;;;;;;;3.80;1.10;;;29.00;58.50;;;;;;5074402;28;20039;-74
2022/08/25 11:46:58;;;;;;;3.03;1.15;;;29.10;58.50;;;;;;5072491;28;20401;-74
2022/08/25 11:49:43;;;;;;;7.53;1.35;;;29.00;58.70;;;;;;5074115;28;20059;-74
2022/08/25 11:52:31;;;;;;;5.68;1.95;;;29.10;58.60;;;;;;5074366;28;20036;-74
2022/08/25 11:55:14;;;;;;;2.83;1.20;;;29.10;58.40;;;;;;5074033;28;20378;-74
2022/08/25 11:57:41;;;;;;;;;;;29.00;57.90;;;;;;5073411;28;20093;-73
2022/08/25 12:00:13;;;;;;;3.05;1.83;;;29.10;58.60;;;;;;5073872;28;20369;-74
2022/08/25 12:02:50;;;;;;;4.72;1.70;;;29.10;58.60;;;;;;5074132;28;20435;-74
2022/08/25 12:05:16;;;;;;;4.32;1.75;;;29.00;58.10;;;;;;5073772;28;20044;-74
2022/08/25 12:11:06;;;;;;;3.65;1.40;;;29.20;58.50;;;;;;5071602;28;20047;-74
2022/08/25 12:13:42;;;;;;;4.20;1.52;;;29.10;58.50;;;;;;5073800;28;20668;-73
2022/08/25 12:16:34;;;;;;;2.80;1.20;;;29.00;58.50;;;;;;5073623;28;20099;-74
2022/08/25 12:19:24;;;;;;;3.08;0.90;;;29.10;58.50;;;;;;5069584;28;20473;-74
2022/08/25 12:21:52;;;;;;;2.58;1.27;;;29.10;58.40;;;;;;5073546;28;20404;-74
2022/08/25 12:24:44;;;;;;;2.90;1.20;;;29.10;58.50;;;;;;5072412;28;20032;-74
2022/08/25 12:27:24;;;;;;;1.20;1.15;;;29.20;58.40;;;;;;5073159;28;20358;-74
2022/08/25 12:29:58;;;;;;;4.47;1.75;;;29.10;58.40;;;;;;5073304;28;20056;-74
2022/08/25 12:32:24;;;;;;;5.90;1.80;;;29.10;58.50;;;;;;5073475;28;20025;-73
2022/08/25 12:35:12;;;;;;;7.13;1.63;;;29.00;58.60;;;;;;5073359;28;20052;-74
2022/08/25 12:37:59;;;;;;;4.97;1.50;;;29.10;58.50;;;;;;5073655;28;20044;-74
2022/08/25 12:40:34;;;;;;;5.18;1.20;;;29.00;58.60;;;;;;5055230;28;20032;-74
2022/08/25 12:43:10;;;;;;;5.25;1.40;;;29.00;58.70;;;;;;5073362;28;20035;-74
2022/08/25 12:45:45;;;;;;;3.85;1.83;;;29.00;58.70;;;;;;5072962;28;20071;-74
2022/08/25 12:48:26;;;;;;;5.95;1.33;;;29.20;58.70;;;;;;5073176;28;20025;-74
2022/08/25 12:51:04;;;;;;;13.82;1.70;;;29.00;58.70;;;;;;5073048;28;20525;-74
2022/08/25 12:53:40;;;;;;;3.63;1.75;;;29.00;58.70;;;;;;5072763;28;20043;-73
2022/08/25 12:56:27;;;;;;;1.58;1.48;;;28.90;58.10;;;;;;5072947;28;20080;-74
2022/08/25 12:59:12;;;;;;;6.10;1.77;;;29.10;58.70;;;;;;5072498;28;20051;-73
2022/08/25 13:02:11;;;;;;;4.03;1.30;;;29.10;58.70;;;;;;5072675;28;20102;-74
2022/08/25 13:04:59;;;;;;;10.85;1.33;;;29.00;58.70;;;;;;5054797;28;20583;-74
2022/08/25 13:07:58;;;;;;;4.90;1.83;;;29.10;58.70;;;;;;5072530;28;20075;-74
2022/08/25 13:10:45;;;;;;;7.30;1.90;;;29.10;58.60;;;;;;5072576;28;20040;-74
2022/08/25 13:13:34;;;;;;;8.05;2.30;;;29.10;58.60;;;;;;5072553;28;20511;-73
2022/08/25 13:16:07;;;;;;;2.97;1.70;;;29.10;58.60;;;;;;5049794;28;20045;-74
2022/08/25 13:18:35;;;;;;;10.25;1.55;;;29.10;58.70;;;;;;5049536;28;20563;-74
2022/08/25 13:21:33;;;;;;;12.52;1.52;;;29.10;58.70;;;;;;5049714;28;20081;-74